Time;durP1;ratioP1;P1;durP2;ratioP2;P2;SDS_P1;SDS_P2;PMS_P1;PMS_P2;Temp;Humidity;BMP_temperature;BMP_pressure;BME280_temperature;BME280_humidity;BME280_pressure;Samples;Min_cycle;Max_cycle;Signal;HPM_P1;HPM_P2
2022/05/01 00:01:30;;;;;;;22.23;12.60;;;5.20;99.90;;;;;;5093014;28;20201;-59
2022/05/01 00:03:59;;;;;;;17.57;12.83;;;5.10;99.90;;;;;;5093018;28;20274;-59
2022/05/01 00:06:27;;;;;;;17.43;12.90;;;5.10;99.90;;;;;;5092880;28;20240;-59
2022/05/01 00:08:56;;;;;;;20.80;12.37;;;5.10;99.90;;;;;;5092831;28;20190;-59
2022/05/01 00:11:24;;;;;;;16.53;12.03;;;5.00;99.90;;;;;;5091455;28;20641;-58
2022/05/01 00:13:54;;;;;;;19.63;12.40;;;5.00;99.90;;;;;;5092604;28;20208;-58
2022/05/01 00:16:22;;;;;;;18.90;13.37;;;4.90;99.90;;;;;;5091976;28;20198;-58
2022/05/01 00:18:53;;;;;;;19.03;12.53;;;4.90;99.90;;;;;;5092415;28;20194;-59
2022/05/01 00:21:22;;;;;;;21.10;12.60;;;4.80;99.90;;;;;;5091833;28;20198;-59
2022/05/01 00:23:50;;;;;;;20.47;12.73;;;4.80;99.90;;;;;;5091600;28;20215;-58
2022/05/01 00:26:18;;;;;;;20.23;13.30;;;4.70;99.90;;;;;;5080370;28;20275;-59
2022/05/01 00:28:47;;;;;;;18.57;12.90;;;4.70;99.90;;;;;;5092739;28;20214;-59
2022/05/01 00:31:18;;;;;;;21.93;14.20;;;4.60;99.90;;;;;;5081998;28;20202;-59
2022/05/01 00:36:33;;;;;;;23.20;14.43;;;4.50;99.90;;;;;;5082408;28;20577;-59
2022/05/01 00:39:04;;;;;;;22.27;14.73;;;4.50;99.90;;;;;;5095346;28;20659;-58
2022/05/01 00:41:35;;;;;;;20.10;13.97;;;4.50;99.90;;;;;;5086823;28;20723;-58
2022/05/01 00:44:06;;;;;;;22.20;14.67;;;4.40;99.90;;;;;;5094226;28;20207;-59
2022/05/01 00:46:37;;;;;;;25.43;14.33;;;4.40;99.90;;;;;;5091903;28;20219;-58
2022/05/01 00:49:10;;;;;;;27.53;14.57;;;4.40;99.90;;;;;;5131477;27;20203;-58
2022/05/01 00:51:43;;;;;;;23.53;14.73;;;4.50;99.90;;;;;;5104915;28;21064;-59
2022/05/01 00:54:12;;;;;;;26.77;15.10;;;4.40;99.90;;;;;;5081954;28;20287;-59
2022/05/01 00:56:42;;;;;;;23.80;15.67;;;4.50;99.90;;;;;;5077762;28;20860;-59
2022/05/01 00:59:12;;;;;;;21.47;14.63;;;4.50;99.90;;;;;;5098912;28;20273;-58
2022/05/01 01:06:26;;;;;;;24.63;14.97;;;4.40;99.90;;;;;;5093507;28;20300;-57
2022/05/01 01:08:54;;;;;;;25.43;14.90;;;4.40;99.90;;;;;;5106180;28;20505;-58
2022/05/01 01:11:23;;;;;;;26.23;14.00;;;4.40;99.90;;;;;;5095921;28;20203;-58
2022/05/01 01:13:51;;;;;;;25.70;14.67;;;4.40;99.90;;;;;;5094749;28;20187;-59
2022/05/01 01:16:20;;;;;;;18.97;14.00;;;4.30;99.90;;;;;;5095170;28;20210;-58
2022/05/01 01:18:48;;;;;;;20.87;14.20;;;4.30;99.90;;;;;;5083580;28;20192;-58
2022/05/01 01:21:18;;;;;;;21.93;13.93;;;4.30;99.90;;;;;;5095190;28;20194;-58
2022/05/01 01:23:47;;;;;;;22.57;14.07;;;4.30;99.90;;;;;;5090365;28;20667;-59
2022/05/01 01:26:16;;;;;;;22.50;14.60;;;4.20;99.90;;;;;;5106177;28;20191;-57
2022/05/01 01:28:44;;;;;;;26.10;15.30;;;4.20;99.90;;;;;;5095632;28;20195;-58
2022/05/01 01:34:04;;;;;;;30.60;14.73;;;4.10;99.90;;;;;;5082641;28;20201;-58
2022/05/01 01:36:36;;;;;;;29.60;15.80;;;4.00;99.90;;;;;;5093544;28;20555;-57
2022/05/01 01:39:05;;;;;;;25.60;15.70;;;4.00;99.90;;;;;;5082818;28;20272;-58
2022/05/01 01:41:34;;;;;;;24.13;16.23;;;3.90;99.90;;;;;;5101429;28;20203;-58
2022/05/01 01:44:02;;;;;;;23.87;15.30;;;3.90;99.90;;;;;;5108140;28;20211;-57
2022/05/01 01:46:33;;;;;;;22.90;15.43;;;3.90;99.90;;;;;;5094078;28;20306;-58
2022/05/01 01:49:01;;;;;;;24.30;16.57;;;3.90;99.90;;;;;;5085923;28;20196;-57
2022/05/01 01:51:30;;;;;;;25.23;16.63;;;3.90;99.90;;;;;;5094903;28;20324;-57
2022/05/01 01:53:59;;;;;;;23.77;15.97;;;3.90;99.90;;;;;;5096282;28;20199;-58
2022/05/01 02:04:17;;;;;;;31.07;16.43;;;3.70;99.90;;;;;;5088210;28;20218;-59
2022/05/01 02:11:37;;;;;;;24.60;16.03;;;3.60;99.90;;;;;;5087379;28;20189;-58
2022/05/01 02:14:10;;;;;;;24.23;15.80;;;3.60;99.90;;;;;;5093251;28;20187;-59
2022/05/01 02:16:40;;;;;;;26.17;16.03;;;3.50;99.90;;;;;;5094336;28;20187;-59
2022/05/01 02:19:09;;;;;;;26.27;16.10;;;3.50;99.90;;;;;;5094296;28;20298;-58
2022/05/01 02:21:36;;;;;;;29.77;16.90;;;3.40;99.90;;;;;;5094699;28;20270;-58
2022/05/01 02:24:09;;;;;;;25.83;17.43;;;3.40;99.90;;;;;;5093794;28;20558;-58
2022/05/01 02:26:39;;;;;;;29.07;16.93;;;3.50;99.90;;;;;;5081430;28;20230;-58
2022/05/01 02:29:10;;;;;;;27.63;16.70;;;3.50;99.90;;;;;;5094246;28;20200;-58
2022/05/01 02:31:41;;;;;;;27.93;16.67;;;3.40;99.90;;;;;;5098091;28;20666;-58
2022/05/01 02:34:10;;;;;;;25.37;16.83;;;3.40;99.90;;;;;;5127158;27;20194;-58
2022/05/01 02:36:39;;;;;;;27.47;16.47;;;3.40;99.90;;;;;;5094526;28;20191;-58
2022/05/01 02:39:08;;;;;;;27.93;17.10;;;3.40;99.90;;;;;;5093000;28;20554;-58
2022/05/01 02:41:36;;;;;;;29.07;17.93;;;3.40;99.90;;;;;;5094026;28;20195;-59
2022/05/01 02:44:06;;;;;;;28.70;17.50;;;3.30;99.90;;;;;;5094153;28;20203;-57
2022/05/01 02:46:35;;;;;;;30.07;18.50;;;3.30;99.90;;;;;;5093267;28;20635;-58
2022/05/01 02:49:04;;;;;;;29.77;17.80;;;3.30;99.90;;;;;;5093719;28;20278;-58
2022/05/01 02:51:33;;;;;;;31.00;18.60;;;3.30;99.90;;;;;;5093285;28;20315;-58
2022/05/01 02:54:01;;;;;;;31.57;18.87;;;3.30;99.90;;;;;;5093780;28;20191;-58
2022/05/01 02:56:30;;;;;;;31.53;18.13;;;3.20;99.90;;;;;;5126858;27;20663;-58
2022/05/01 02:58:59;;;;;;;34.20;19.43;;;3.20;99.90;;;;;;5094859;28;20235;-58
2022/05/01 03:01:30;;;;;;;33.23;19.23;;;3.20;99.90;;;;;;5086576;28;20188;-60
2022/05/01 03:03:58;;;;;;;31.13;19.60;;;3.20;99.90;;;;;;5093384;28;20198;-58
2022/05/01 03:06:26;;;;;;;39.87;20.57;;;3.20;99.90;;;;;;5126373;27;20612;-58
2022/05/01 03:08:57;;;;;;;38.53;20.00;;;3.30;99.90;;;;;;5093328;28;20183;-58
2022/05/01 03:11:25;;;;;;;37.90;20.20;;;3.30;99.90;;;;;;5093339;28;20730;-58
2022/05/01 03:13:54;;;;;;;31.43;19.80;;;3.20;99.90;;;;;;5101939;28;20190;-57
2022/05/01 03:16:22;;;;;;;34.60;19.83;;;3.10;99.90;;;;;;5114096;28;20647;-58
2022/05/01 03:24:23;;;;;;;31.60;19.13;;;3.10;99.90;;;;;;5093619;28;20191;-57
2022/05/01 03:26:54;;;;;;;36.03;20.17;;;3.00;99.90;;;;;;5089896;28;20712;-57
2022/05/01 03:29:25;;;;;;;35.40;21.33;;;3.10;99.90;;;;;;5092988;28;20274;-57
2022/05/01 03:31:54;;;;;;;40.67;22.13;;;3.10;99.90;;;;;;5093245;28;20716;-58
2022/05/01 03:34:26;;;;;;;39.10;22.57;;;3.10;99.90;;;;;;5092913;28;20199;-56
2022/05/01 03:36:55;;;;;;;37.00;22.33;;;3.10;99.90;;;;;;5093159;28;20191;-57
2022/05/01 03:39:23;;;;;;;39.50;22.17;;;3.10;99.90;;;;;;5091762;28;20202;-57
2022/05/01 03:41:51;;;;;;;36.97;21.30;;;3.10;99.90;;;;;;5092703;28;20187;-57
2022/05/01 03:44:20;;;;;;;37.13;22.17;;;3.10;99.90;;;;;;5079007;28;21645;-58
2022/05/01 03:46:48;;;;;;;35.00;21.87;;;3.10;99.90;;;;;;5083236;28;20322;-57
2022/05/01 03:49:16;;;;;;;40.40;22.90;;;3.10;99.90;;;;;;5092505;28;20225;-57
2022/05/01 03:51:46;;;;;;;33.50;21.43;;;3.10;99.90;;;;;;5091929;28;20231;-58
2022/05/01 03:54:15;;;;;;;35.43;22.20;;;3.10;99.90;;;;;;5099956;28;20199;-58
2022/05/01 03:56:43;;;;;;;40.03;23.17;;;3.10;99.90;;;;;;5092836;28;20595;-58
2022/05/01 03:59:11;;;;;;;41.53;23.80;;;3.10;99.90;;;;;;5096086;28;20200;-58
2022/05/01 04:01:39;;;;;;;39.73;23.17;;;3.10;99.90;;;;;;5103745;28;20595;-57
2022/05/01 04:04:08;;;;;;;39.87;23.07;;;3.10;99.90;;;;;;5071544;28;20196;-58
2022/05/01 04:06:37;;;;;;;42.20;23.73;;;3.00;99.90;;;;;;5089287;28;20218;-58
2022/05/01 04:09:06;;;;;;;41.60;23.60;;;3.00;99.90;;;;;;5091134;28;20199;-59
2022/05/01 04:11:35;;;;;;;46.83;24.70;;;3.00;99.90;;;;;;5097668;28;20757;-58
2022/05/01 04:14:03;;;;;;;49.70;24.53;;;3.00;99.90;;;;;;5093008;28;20240;-58
2022/05/01 04:16:31;;;;;;;39.97;23.93;;;3.10;99.90;;;;;;5105211;28;20194;-58
2022/05/01 04:19:00;;;;;;;41.73;23.47;;;3.10;99.90;;;;;;5103822;28;20195;-58
2022/05/01 04:21:29;;;;;;;38.37;21.97;;;3.00;99.90;;;;;;5093244;28;20561;-58
2022/05/01 04:23:57;;;;;;;39.53;22.07;;;3.00;99.90;;;;;;5096682;28;20286;-58
2022/05/01 04:26:27;;;;;;;39.97;23.13;;;3.00;99.90;;;;;;5096656;28;20247;-58
2022/05/01 04:31:41;;;;;;;43.70;23.10;;;2.90;99.90;;;;;;5101946;28;20198;-58
2022/05/01 04:34:09;;;;;;;38.13;22.97;;;3.00;99.90;;;;;;5102588;28;20195;-59
2022/05/01 04:36:39;;;;;;;37.60;22.47;;;3.00;99.90;;;;;;5096568;28;20693;-58
2022/05/01 04:39:07;;;;;;;35.47;22.00;;;3.00;99.90;;;;;;5096393;28;20191;-58
2022/05/01 04:41:37;;;;;;;46.37;22.20;;;3.00;99.90;;;;;;5090140;28;20206;-57
2022/05/01 04:44:05;;;;;;;40.77;23.13;;;3.00;99.90;;;;;;5074746;28;20199;-58
2022/05/01 04:46:34;;;;;;;35.93;22.70;;;3.10;99.90;;;;;;5092403;28;20223;-58
2022/05/01 04:49:02;;;;;;;43.37;23.70;;;3.10;99.90;;;;;;5102722;28;20199;-58
2022/05/01 04:51:30;;;;;;;35.27;21.77;;;3.10;99.90;;;;;;5095629;28;20302;-58
2022/05/01 04:53:59;;;;;;;41.23;21.93;;;3.20;99.90;;;;;;5096282;28;20183;-57
2022/05/01 04:59:15;;;;;;;39.53;23.73;;;3.40;99.90;;;;;;5094880;28;20213;-58
2022/05/01 05:01:43;;;;;;;37.47;22.67;;;3.50;99.90;;;;;;5128629;27;20195;-58
2022/05/01 05:04:11;;;;;;;35.07;21.60;;;3.50;99.90;;;;;;5105863;28;20210;-58
2022/05/01 05:06:40;;;;;;;41.87;23.57;;;3.60;99.90;;;;;;5116270;28;20238;-58
2022/05/01 05:11:54;;;;;;;44.60;23.27;;;3.80;99.90;;;;;;5093028;28;20208;-57
2022/05/01 05:14:24;;;;;;;45.33;25.00;;;3.80;99.90;;;;;;5094831;28;20187;-57
2022/05/01 05:16:52;;;;;;;41.17;24.00;;;3.90;99.90;;;;;;5117528;27;20189;-57
2022/05/01 05:19:20;;;;;;;39.30;23.50;;;4.00;99.90;;;;;;5088540;28;20207;-57
2022/05/01 05:21:49;;;;;;;44.07;25.83;;;4.10;99.90;;;;;;5095092;28;20195;-58
2022/05/01 05:24:23;;;;;;;39.13;24.07;;;4.30;99.90;;;;;;5094810;28;20191;-58
2022/05/01 05:26:52;;;;;;;40.83;24.80;;;4.50;99.90;;;;;;5095384;28;20309;-58
2022/05/01 05:29:20;;;;;;;42.00;26.00;;;4.70;99.90;;;;;;5095463;28;20234;-58
2022/05/01 05:31:50;;;;;;;36.47;23.97;;;4.80;99.90;;;;;;5094833;28;20256;-58
2022/05/01 05:34:19;;;;;;;44.33;24.90;;;4.90;99.90;;;;;;5095442;28;20265;-58
2022/05/01 05:36:48;;;;;;;41.17;26.07;;;5.10;99.90;;;;;;5089313;28;20199;-58
2022/05/01 05:39:16;;;;;;;35.37;24.03;;;5.20;99.90;;;;;;5093268;28;20227;-58
2022/05/01 05:41:45;;;;;;;40.53;25.57;;;5.40;99.90;;;;;;5079100;28;20191;-58
2022/05/01 05:44:13;;;;;;;40.57;24.83;;;5.50;99.90;;;;;;5095206;28;20278;-58
2022/05/01 05:46:42;;;;;;;47.03;25.40;;;5.70;99.90;;;;;;5083289;28;20226;-57
2022/05/01 05:49:12;;;;;;;41.03;25.97;;;5.80;99.90;;;;;;5095050;28;20199;-57
2022/05/01 05:51:40;;;;;;;44.13;27.00;;;6.00;99.90;;;;;;5093296;28;20231;-58
2022/05/01 05:54:08;;;;;;;43.60;26.10;;;6.30;99.90;;;;;;5096617;28;20274;-58
2022/05/01 05:56:36;;;;;;;44.70;28.40;;;6.50;99.90;;;;;;5094348;28;20191;-59
2022/05/01 05:59:05;;;;;;;42.40;29.10;;;6.70;99.90;;;;;;5093808;28;20221;-58
2022/05/01 06:01:33;;;;;;;40.63;27.63;;;6.90;99.90;;;;;;5091663;28;20214;-59
2022/05/01 06:04:02;;;;;;;42.43;26.97;;;7.00;99.90;;;;;;5086388;28;20190;-58
2022/05/01 06:06:31;;;;;;;44.53;29.73;;;7.20;99.90;;;;;;5085771;28;20216;-57
2022/05/01 06:09:00;;;;;;;45.33;28.00;;;7.30;99.90;;;;;;5087188;28;20286;-58
2022/05/01 06:11:28;;;;;;;39.00;26.03;;;7.40;99.90;;;;;;5094376;28;20223;-57
2022/05/01 06:13:56;;;;;;;44.43;26.73;;;7.40;99.90;;;;;;5096217;28;20199;-57
2022/05/01 06:16:27;;;;;;;40.47;25.07;;;7.50;99.90;;;;;;5096995;28;20199;-58
2022/05/01 06:18:55;;;;;;;41.13;25.03;;;7.50;99.90;;;;;;5127673;27;20233;-58
2022/05/01 06:21:23;;;;;;;41.43;24.67;;;7.50;99.90;;;;;;5093221;28;20196;-57
2022/05/01 06:23:53;;;;;;;37.90;24.83;;;7.70;99.90;;;;;;5094457;28;20195;-57
2022/05/01 06:26:21;;;;;;;36.53;24.57;;;7.70;99.90;;;;;;5093668;28;20215;-58
2022/05/01 06:28:53;;;;;;;39.00;26.30;;;7.80;99.90;;;;;;5094364;28;20238;-59
2022/05/01 06:31:21;;;;;;;40.77;26.37;;;7.80;99.90;;;;;;5093260;28;20704;-58
2022/05/01 06:33:50;;;;;;;48.37;31.03;;;7.90;99.90;;;;;;5088728;28;20197;-60
2022/05/01 06:36:18;;;;;;;41.63;27.57;;;8.00;99.90;;;;;;5081183;28;20185;-58
2022/05/01 06:38:47;;;;;;;41.27;26.53;;;8.10;99.90;;;;;;5089627;28;20274;-58
2022/05/01 06:41:18;;;;;;;38.53;24.33;;;8.30;99.90;;;;;;5092873;28;20198;-59
2022/05/01 06:43:49;;;;;;;37.43;24.97;;;8.60;99.90;;;;;;5093296;28;20651;-58
2022/05/01 06:46:17;;;;;;;38.67;26.07;;;8.60;99.90;;;;;;5092072;28;20269;-59
2022/05/01 06:48:46;;;;;;;38.57;25.23;;;8.60;99.90;;;;;;5093090;28;20257;-58
2022/05/01 06:51:14;;;;;;;36.43;25.83;;;8.70;99.90;;;;;;5075455;28;20259;-60
2022/05/01 06:53:43;;;;;;;38.13;24.83;;;8.80;99.90;;;;;;5093850;28;20195;-58
2022/05/01 06:56:12;;;;;;;38.13;23.50;;;8.90;99.90;;;;;;5087502;28;20199;-60
2022/05/01 06:58:41;;;;;;;35.53;25.67;;;9.10;99.90;;;;;;5093366;28;20188;-59
2022/05/01 07:01:10;;;;;;;41.33;25.73;;;9.30;99.90;;;;;;5092829;28;20282;-59
2022/05/01 07:03:40;;;;;;;35.57;24.00;;;9.50;99.90;;;;;;5093220;28;20198;-58
2022/05/01 07:06:08;;;;;;;36.20;24.20;;;9.70;99.90;;;;;;5086389;28;20187;-59
2022/05/01 07:08:39;;;;;;;38.50;25.33;;;10.00;99.90;;;;;;5092480;28;20211;-58
2022/05/01 07:11:08;;;;;;;36.17;23.17;;;10.30;99.90;;;;;;5094758;28;20265;-59
2022/05/01 07:13:36;;;;;;;35.43;24.30;;;10.50;99.90;;;;;;5092998;28;20201;-58
2022/05/01 07:16:06;;;;;;;34.87;23.87;;;10.60;99.90;;;;;;5091399;28;20646;-59
2022/05/01 07:18:35;;;;;;;30.90;23.27;;;10.70;99.90;;;;;;5104268;28;20291;-59
2022/05/01 07:21:03;;;;;;;34.20;22.53;;;10.70;99.90;;;;;;5100487;28;20266;-58
2022/05/01 07:23:31;;;;;;;33.93;24.07;;;10.80;99.90;;;;;;5084551;28;20221;-58
2022/05/01 07:26:00;;;;;;;36.03;23.80;;;10.80;99.90;;;;;;5086314;28;20191;-59
2022/05/01 07:28:28;;;;;;;35.37;24.43;;;10.80;99.90;;;;;;5092850;28;20254;-58
2022/05/01 07:30:56;;;;;;;30.93;22.40;;;10.70;99.90;;;;;;5092785;28;20222;-59
2022/05/01 07:33:26;;;;;;;36.43;23.23;;;10.80;99.90;;;;;;5080170;28;20275;-59
2022/05/01 07:35:55;;;;;;;37.57;23.73;;;11.10;99.90;;;;;;5090969;28;20223;-58
2022/05/01 07:38:23;;;;;;;34.17;22.70;;;11.50;99.90;;;;;;5091888;28;20196;-58
2022/05/01 07:40:54;;;;;;;32.20;23.33;;;12.00;99.90;;;;;;5092856;28;20206;-59
2022/05/01 07:43:22;;;;;;;32.57;23.37;;;12.50;99.90;;;;;;5092813;28;20221;-58
2022/05/01 07:45:51;;;;;;;35.00;23.80;;;12.60;99.90;;;;;;5091266;28;20217;-59
2022/05/01 07:48:20;;;;;;;31.17;22.93;;;12.80;99.90;;;;;;5093207;28;20203;-58
2022/05/01 07:50:49;;;;;;;35.00;22.10;;;12.80;99.90;;;;;;5092431;28;20233;-59
2022/05/01 07:53:18;;;;;;;30.33;21.97;;;13.00;99.90;;;;;;5117196;28;20658;-58
2022/05/01 07:55:46;;;;;;;27.07;18.87;;;13.50;99.90;;;;;;5093167;28;20205;-59
2022/05/01 07:58:14;;;;;;;25.20;19.73;;;13.80;99.90;;;;;;5096931;28;20191;-59
2022/05/01 08:00:43;;;;;;;28.70;18.90;;;14.10;99.90;;;;;;5090929;28;20581;-59
2022/05/01 08:05:58;;;;;;;25.13;19.30;;;14.40;99.90;;;;;;5086215;28;20199;-59
2022/05/01 08:08:26;;;;;;;26.77;19.77;;;14.60;99.90;;;;;;5095337;28;20221;-58
2022/05/01 08:10:55;;;;;;;25.73;17.10;;;14.60;99.90;;;;;;5095228;28;20202;-59
2022/05/01 08:13:23;;;;;;;23.23;17.13;;;14.80;99.90;;;;;;5096358;28;20201;-59
2022/05/01 08:15:52;;;;;;;23.90;16.13;;;15.10;99.90;;;;;;5092680;28;20195;-59
2022/05/01 08:21:48;;;;;;;23.97;17.10;;;15.20;99.90;;;;;;5088748;28;20233;-59
2022/05/01 08:27:46;;;;;;;19.30;15.03;;;16.10;99.90;;;;;;5092459;28;20243;-59
2022/05/01 08:30:18;;;;;;;19.53;13.70;;;16.70;99.90;;;;;;5105842;28;20205;-59
2022/05/01 08:32:48;;;;;;;15.77;13.03;;;16.90;99.90;;;;;;5095469;28;20204;-59
2022/05/01 08:35:19;;;;;;;18.87;14.10;;;17.10;99.90;;;;;;5100231;28;20934;-59
2022/05/01 08:37:48;;;;;;;14.07;11.07;;;17.30;99.90;;;;;;5089449;28;20218;-59
2022/05/01 08:40:18;;;;;;;17.27;11.80;;;17.60;99.90;;;;;;5094651;28;20212;-59
2022/05/01 08:42:48;;;;;;;17.23;13.90;;;17.50;99.90;;;;;;5095577;28;20244;-59
2022/05/01 08:45:46;;;;;;;14.73;13.03;;;17.80;99.90;;;;;;5099048;28;20251;-59
2022/05/01 08:53:07;;;;;;;14.23;11.53;;;17.60;99.90;;;;;;5092810;28;21852;-59
2022/05/01 09:00:07;;;;;;;24.03;14.90;;;17.00;99.90;;;;;;5100728;28;20242;-59
2022/05/01 09:02:38;;;;;;;15.83;13.43;;;17.40;99.90;;;;;;5104693;28;20192;-59
2022/05/01 09:05:08;;;;;;;16.87;14.07;;;17.30;99.90;;;;;;5096976;28;20681;-59
2022/05/01 09:08:15;;;;;;;16.90;14.17;;;17.10;99.90;;;;;;5100563;28;20197;-59
2022/05/01 09:10:47;;;;;;;16.17;12.60;;;16.80;99.90;;;;;;5077520;28;20223;-58
2022/05/01 09:20:56;;;;;;;15.00;12.70;;;16.40;99.90;;;;;;5085432;28;20656;-59
2022/05/01 09:23:37;;;;;;;17.70;13.00;;;16.80;99.90;;;;;;5094137;28;20211;-59
2022/05/01 09:26:28;;;;;;;13.53;12.17;;;17.00;99.90;;;;;;5106418;28;20217;-59
2022/05/01 09:29:01;;;;;;;14.47;12.40;;;17.10;99.90;;;;;;5084979;28;20210;-59
2022/05/01 09:31:50;;;;;;;14.57;13.03;;;16.90;99.90;;;;;;5079807;28;20203;-59
2022/05/01 09:39:04;;;;;;;19.80;13.13;;;16.60;99.90;;;;;;5091880;28;20252;-58
2022/05/01 09:41:34;;;;;;;13.17;11.43;;;16.50;99.90;;;;;;5078850;28;20306;-59
2022/05/01 09:44:14;;;;;;;14.97;12.10;;;17.20;99.90;;;;;;5083460;28;20203;-59
2022/05/01 09:46:44;;;;;;;15.07;12.23;;;17.60;99.90;;;;;;5094415;28;20297;-59
2022/05/01 09:49:14;;;;;;;15.93;12.57;;;17.50;99.90;;;;;;5084865;28;20560;-59
2022/05/01 09:51:46;;;;;;;14.73;11.93;;;17.40;99.90;;;;;;5093254;28;20314;-59
2022/05/01 09:57:50;;;;;;;16.63;12.10;;;16.90;99.90;;;;;;5097041;28;20260;-59
2022/05/01 10:01:11;;;;;;;11.90;10.73;;;17.80;99.90;;;;;;5094365;28;20225;-60
2022/05/01 10:07:18;;;;;;;11.93;10.73;;;20.90;99.90;;;;;;5091079;28;20226;-59
2022/05/01 10:13:47;;;;;;;12.10;10.30;;;20.20;99.90;;;;;;5087098;28;20205;-59
2022/05/01 10:21:02;;;;;;;10.17;9.10;;;20.70;99.90;;;;;;5091098;28;20190;-59
2022/05/01 10:24:12;;;;;;;12.97;10.10;;;21.00;99.90;;;;;;5088465;28;20214;-59
2022/05/01 10:26:52;;;;;;;10.50;9.47;;;20.40;99.90;;;;;;5088535;28;20668;-59
2022/05/01 10:29:37;;;;;;;11.43;9.93;;;20.50;99.90;;;;;;5093518;28;20644;-59
2022/05/01 10:32:29;;;;;;;11.77;10.50;;;20.50;99.90;;;;;;5082598;28;20182;-59
2022/05/01 10:35:29;;;;;;;11.03;9.93;;;20.40;99.90;;;;;;5094449;28;20215;-59
2022/05/01 10:38:09;;;;;;;11.30;10.03;;;21.00;99.90;;;;;;5082898;28;20537;-60
2022/05/01 10:41:16;;;;;;;10.83;9.73;;;21.30;99.90;;;;;;5089607;28;20278;-59
2022/05/01 10:48:11;;;;;;;10.13;9.13;;;21.60;99.90;;;;;;5084399;28;20180;-59
2022/05/01 10:50:43;;;;;;;10.97;9.87;;;21.60;99.90;;;;;;5091541;28;20533;-60
2022/05/01 10:53:13;;;;;;;10.60;9.60;;;20.90;99.90;;;;;;5091778;28;20235;-59
2022/05/01 11:00:29;;;;;;;12.60;9.50;;;20.50;99.80;;;;;;5085946;28;20198;-59
2022/05/01 11:02:58;;;;;;;10.57;9.53;;;20.20;99.90;;;;;;5093220;28;20195;-59
2022/05/01 11:05:45;;;;;;;11.20;9.37;;;20.00;99.70;;;;;;5098415;28;20217;-59
2022/05/01 11:12:19;;;;;;;285.73;190.03;;;19.00;99.90;;;;;;5086703;28;20188;-58
2022/05/01 11:15:08;;;;;;;36.10;29.03;;;19.10;99.90;;;;;;5093660;28;20185;-59
2022/05/01 11:17:57;;;;;;;13.97;10.77;;;19.60;99.90;;;;;;5095709;28;20196;-58
2022/05/01 11:21:06;;;;;;;11.30;10.10;;;19.90;99.90;;;;;;5088005;28;20678;-59
2022/05/01 11:23:36;;;;;;;12.03;10.17;;;20.10;99.90;;;;;;5084292;28;20271;-59
2022/05/01 11:26:43;;;;;;;12.87;11.10;;;20.00;99.90;;;;;;5093290;28;20620;-58
2022/05/01 11:29:39;;;;;;;13.13;10.40;;;19.40;99.90;;;;;;5090694;28;20188;-58
2022/05/01 11:32:26;;;;;;;12.27;10.60;;;19.20;99.90;;;;;;5093406;28;20582;-60
2022/05/01 11:40:09;;;;;;;15.03;11.03;;;19.50;99.80;;;;;;5086333;28;20222;-59
2022/05/01 11:43:23;;;;;;;14.77;11.97;;;18.70;99.90;;;;;;5081484;28;20291;-58
2022/05/01 11:45:53;;;;;;;11.73;10.60;;;17.90;99.90;;;;;;5082310;28;20766;-59
2022/05/01 12:08:52;;;;;;;16.17;14.33;;;18.70;99.90;;;;;;5089129;28;20248;-59
2022/05/01 12:15:03;;;;;;;28.80;18.60;;;18.70;99.90;;;;;;5084417;28;20241;-59
2022/05/01 12:17:53;;;;;;;16.57;13.70;;;18.40;99.90;;;;;;5093875;28;20179;-58
2022/05/01 12:20:34;;;;;;;15.93;12.93;;;18.40;99.90;;;;;;5098484;28;20207;-58
2022/05/01 12:23:03;;;;;;;33.23;23.20;;;18.50;99.90;;;;;;5082645;28;20279;-58
2022/05/01 12:25:40;;;;;;;21.13;17.30;;;18.50;99.90;;;;;;5086480;28;20204;-58
2022/05/01 12:28:11;;;;;;;16.37;14.50;;;18.80;99.90;;;;;;5090960;28;20659;-58
2022/05/01 12:31:06;;;;;;;21.30;15.03;;;19.20;99.90;;;;;;5089397;28;20279;-58
2022/05/01 12:34:12;;;;;;;19.40;16.70;;;19.60;99.90;;;;;;5074662;28;20676;-58
2022/05/01 12:37:13;;;;;;;18.07;15.13;;;20.20;99.90;;;;;;5085634;28;20248;-57
2022/05/01 12:40:03;;;;;;;21.53;16.23;;;19.70;98.80;;;;;;5087099;28;20662;-58
2022/05/01 12:45:37;;;;;;;17.20;15.43;;;19.40;99.90;;;;;;5118285;27;20295;-57
2022/05/01 12:48:06;;;;;;;23.63;17.33;;;19.50;99.90;;;;;;5090597;28;20655;-57
2022/05/01 12:50:37;;;;;;;19.00;16.10;;;19.80;99.90;;;;;;5097230;28;20568;-58
2022/05/01 12:53:25;;;;;;;25.20;21.37;;;20.20;99.90;;;;;;5095052;28;20706;-58
2022/05/01 12:55:54;;;;;;;19.77;16.93;;;20.40;99.20;;;;;;5088482;28;20196;-58
2022/05/01 12:58:29;;;;;;;20.93;16.57;;;20.40;99.50;;;;;;5093579;28;20696;-58
2022/05/01 13:01:26;;;;;;;18.23;16.30;;;20.20;98.40;;;;;;5095642;28;20711;-58
2022/05/01 13:03:57;;;;;;;20.97;16.40;;;19.60;98.70;;;;;;5088604;28;20626;-58
2022/05/01 13:06:26;;;;;;;18.40;16.40;;;19.80;99.10;;;;;;5094327;28;20184;-58
2022/05/01 13:09:09;;;;;;;20.60;17.73;;;19.90;99.40;;;;;;5093434;28;20223;-58
2022/05/01 13:11:37;;;;;;;21.70;18.40;;;19.80;99.30;;;;;;5087315;28;20638;-59
2022/05/01 13:14:09;;;;;;;21.90;18.20;;;19.70;98.60;;;;;;5087357;28;20590;-58
2022/05/01 13:17:07;;;;;;;20.63;18.33;;;19.60;99.00;;;;;;5086713;28;20798;-58
2022/05/01 13:19:38;;;;;;;21.10;18.00;;;19.50;99.90;;;;;;5122322;27;20242;-59
2022/05/01 13:22:08;;;;;;;21.60;18.50;;;19.50;98.80;;;;;;5121706;27;20282;-59
2022/05/01 13:24:40;;;;;;;29.63;17.73;;;19.30;99.30;;;;;;5080237;28;20587;-59
2022/05/01 13:27:28;;;;;;;18.63;16.77;;;19.30;99.90;;;;;;5088474;28;20256;-58
2022/05/01 13:29:59;;;;;;;19.50;17.40;;;19.40;99.90;;;;;;5087364;28;20188;-58
2022/05/01 13:32:29;;;;;;;18.73;16.73;;;19.30;98.80;;;;;;5085721;28;20601;-58
2022/05/01 13:34:57;;;;;;;19.77;16.20;;;19.00;97.70;;;;;;5086323;28;20683;-58
2022/05/01 13:37:26;;;;;;;17.33;15.63;;;19.00;99.70;;;;;;5095051;28;20248;-59
2022/05/01 13:46:15;;;;;;;22.60;18.77;;;18.60;99.20;;;;;;5090534;28;20234;-58
2022/05/01 13:48:46;;;;;;;21.83;18.47;;;18.50;98.90;;;;;;5084923;28;20198;-58
2022/05/01 13:51:33;;;;;;;19.70;17.60;;;18.60;99.90;;;;;;5100248;28;20204;-58
2022/05/01 13:54:05;;;;;;;23.30;17.80;;;18.60;99.90;;;;;;5085613;28;20245;-58
2022/05/01 13:57:15;;;;;;;18.57;16.63;;;18.60;99.90;;;;;;5093582;28;20222;-58
2022/05/01 13:59:48;;;;;;;18.93;15.77;;;18.80;99.90;;;;;;5089466;28;20208;-58
2022/05/01 14:02:18;;;;;;;16.43;14.67;;;19.00;99.90;;;;;;5094058;28;20203;-58
2022/05/01 14:04:47;;;;;;;16.80;14.10;;;19.00;98.20;;;;;;5100609;28;20281;-57
2022/05/01 14:07:17;;;;;;;18.17;14.23;;;19.10;98.90;;;;;;5089711;28;20196;-58
2022/05/01 14:09:47;;;;;;;16.43;14.57;;;19.40;98.30;;;;;;5082184;28;20282;-58
2022/05/01 14:12:18;;;;;;;15.93;13.83;;;19.70;98.90;;;;;;5089473;28;20206;-57
2022/05/01 14:15:08;;;;;;;16.93;14.40;;;19.70;97.70;;;;;;5086373;28;20674;-58
2022/05/01 14:17:41;;;;;;;16.27;13.57;;;19.80;98.30;;;;;;5089901;28;20188;-58
2022/05/01 14:20:09;;;;;;;16.73;14.33;;;19.90;99.90;;;;;;5091430;28;20239;-58
2022/05/01 14:22:41;;;;;;;16.77;14.93;;;20.20;99.70;;;;;;5093177;28;20203;-58
2022/05/01 14:25:11;;;;;;;17.10;13.30;;;20.20;99.90;;;;;;5087762;28;20199;-57
2022/05/01 14:27:40;;;;;;;20.60;15.07;;;20.00;97.70;;;;;;5084467;28;20602;-59
2022/05/01 14:30:31;;;;;;;19.10;14.63;;;19.80;98.10;;;;;;5083693;28;20674;-58
2022/05/01 14:33:03;;;;;;;13.70;12.40;;;19.70;97.60;;;;;;5083954;28;20203;-58
2022/05/01 14:35:34;;;;;;;17.77;13.33;;;19.30;97.40;;;;;;5085565;28;20640;-58
2022/05/01 14:38:08;;;;;;;15.47;12.80;;;19.00;97.60;;;;;;5086166;28;20195;-58
2022/05/01 14:40:40;;;;;;;16.93;12.87;;;19.00;98.30;;;;;;5084191;28;20213;-57
2022/05/01 14:43:12;;;;;;;15.37;13.00;;;19.50;97.90;;;;;;5090378;28;20199;-58
2022/05/01 14:45:48;;;;;;;15.07;12.37;;;19.60;98.30;;;;;;5091465;28;20356;-58
2022/05/01 14:48:25;;;;;;;14.20;12.20;;;20.00;98.80;;;;;;5086762;28;20195;-58
2022/05/01 14:50:55;;;;;;;16.37;14.03;;;20.30;98.70;;;;;;5087919;28;20196;-58
2022/05/01 14:53:51;;;;;;;15.57;12.97;;;20.40;98.20;;;;;;5089346;28;20227;-58
2022/05/01 14:56:21;;;;;;;13.63;12.23;;;20.60;97.80;;;;;;5098576;28;20199;-57
2022/05/01 15:07:20;;;;;;;11.60;9.83;;;21.40;98.70;;;;;;5082135;28;20211;-58
2022/05/01 15:09:52;;;;;;;11.77;10.57;;;21.90;97.80;;;;;;5088180;28;20209;-59
2022/05/01 15:12:24;;;;;;;13.00;11.20;;;21.30;94.90;;;;;;5090677;28;20214;-58
2022/05/01 15:14:52;;;;;;;16.13;11.73;;;20.40;95.30;;;;;;5074117;28;20230;-58
2022/05/01 15:17:30;;;;;;;16.20;11.67;;;20.10;96.30;;;;;;5086465;28;20195;-58
2022/05/01 15:20:18;;;;;;;13.80;11.23;;;20.80;98.50;;;;;;5093394;28;20688;-58
2022/05/01 15:22:57;;;;;;;11.97;10.60;;;21.30;99.10;;;;;;5087655;28;20278;-58
2022/05/01 15:25:31;;;;;;;16.80;11.03;;;21.30;97.10;;;;;;5119461;27;20240;-57